createdAt,value
2023-04-15T00:01:19.147Z,0.13
2023-04-15T00:03:47.525Z,0.08
2023-04-15T00:06:15.122Z,0.10
2023-04-15T00:08:42.689Z,0.20
2023-04-15T00:11:10.098Z,0.10
2023-04-15T00:13:37.838Z,0.50
2023-04-15T00:16:05.244Z,0.17
2023-04-15T00:18:32.778Z,0.00
2023-04-15T00:21:00.202Z,0.10
2023-04-15T00:23:27.641Z,0.22
2023-04-15T00:25:55.277Z,0.40
2023-04-15T00:28:22.488Z,0.20
2023-04-15T00:30:49.774Z,0.20
2023-04-15T00:33:17.727Z,0.80
2023-04-15T00:35:45.043Z,0.60
2023-04-15T00:38:12.315Z,0.40
2023-04-15T00:40:39.673Z,0.10
2023-04-15T00:43:07.100Z,0.22
2023-04-15T00:45:34.537Z,0.30
2023-04-15T00:48:02.160Z,0.10
2023-04-15T00:50:29.472Z,0.13
2023-04-15T00:52:57.154Z,0.35
2023-04-15T00:55:24.379Z,0.30
2023-04-15T00:57:52.420Z,0.57
2023-04-15T01:00:20.239Z,0.25
2023-04-15T01:02:47.831Z,0.88
2023-04-15T01:05:17.590Z,0.10
2023-04-15T01:07:44.860Z,0.43
2023-04-15T01:10:12.209Z,0.45
2023-04-15T01:12:39.674Z,0.40
2023-04-15T01:15:08.120Z,0.15
2023-04-15T01:17:35.721Z,0.20
2023-04-15T01:20:03.331Z,0.03
2023-04-15T01:22:31.659Z,0.10
2023-04-15T01:25:05.163Z,0.45
2023-04-15T01:27:33.115Z,1.35
2023-04-15T01:30:00.380Z,0.17
2023-04-15T01:32:28.098Z,0.22
2023-04-15T01:34:55.469Z,0.15
2023-04-15T01:37:22.799Z,0.70
2023-04-15T01:39:50.066Z,0.60
2023-04-15T01:42:17.349Z,0.98
2023-04-15T01:44:44.761Z,0.75
2023-04-15T01:47:12.594Z,0.50
2023-04-15T01:49:39.833Z,0.60
2023-04-15T01:52:07.201Z,0.43
2023-04-15T01:54:34.442Z,0.68
2023-04-15T01:57:02.265Z,0.63
2023-04-15T01:59:29.736Z,0.40
2023-04-15T02:01:57.522Z,1.33
2023-04-15T02:04:24.900Z,0.32
2023-04-15T02:06:52.158Z,0.90
2023-04-15T02:09:19.421Z,0.63
2023-04-15T02:11:46.694Z,0.30
2023-04-15T02:14:14.478Z,0.50
2023-04-15T02:16:41.860Z,0.82
2023-04-15T02:19:11.886Z,1.15
2023-04-15T02:21:39.872Z,0.90
2023-04-15T02:24:07.584Z,0.50
2023-04-15T02:26:34.916Z,0.43
2023-04-15T02:29:03.298Z,0.68
2023-04-15T02:31:30.774Z,0.80
2023-04-15T02:33:58.153Z,0.55
2023-04-15T02:36:27.165Z,0.25
2023-04-15T02:38:54.488Z,0.60
2023-04-15T02:41:25.828Z,0.30
2023-04-15T02:43:53.084Z,0.68
2023-04-15T02:46:22.136Z,0.13
2023-04-15T02:48:49.889Z,0.17
2023-04-15T02:51:21.440Z,0.35
2023-04-15T02:53:49.407Z,0.20
2023-04-15T02:56:17.419Z,0.15
2023-04-15T02:58:45.850Z,0.40
2023-04-15T03:01:13.691Z,0.17
2023-04-15T03:03:41.424Z,0.05
2023-04-15T03:06:09.213Z,0.30
2023-04-15T03:08:38.102Z,0.55
2023-04-15T03:11:05.623Z,0.85
2023-04-15T03:13:33.113Z,0.30
2023-04-15T03:16:00.668Z,0.10
2023-04-15T03:18:29.295Z,0.25
2023-04-15T03:20:59.039Z,0.32
2023-04-15T03:23:26.407Z,0.13
2023-04-15T03:25:57.191Z,0.13
2023-04-15T03:28:24.720Z,0.60
2023-04-15T03:30:52.034Z,0.40
2023-04-15T03:33:19.342Z,0.22
2023-04-15T03:35:46.621Z,0.20
2023-04-15T03:38:13.925Z,0.57
2023-04-15T03:40:42.270Z,0.30
2023-04-15T03:43:09.585Z,1.10
2023-04-15T03:45:36.860Z,0.40
2023-04-15T03:48:16.708Z,0.50
2023-04-15T03:50:45.354Z,0.73
2023-04-15T03:53:12.638Z,0.30
2023-04-15T03:55:40.086Z,0.70
2023-04-15T03:58:07.407Z,0.60
2023-04-15T04:00:34.663Z,0.63
2023-04-15T04:03:01.992Z,0.20
2023-04-15T04:05:29.489Z,0.88
2023-04-15T04:07:56.784Z,0.00
2023-04-15T04:10:24.001Z,0.57
2023-04-15T04:12:51.398Z,0.10
2023-04-15T04:15:18.685Z,0.00
2023-04-15T04:17:46.352Z,0.15
2023-04-15T04:20:13.621Z,0.17
2023-04-15T04:22:41.282Z,0.30
2023-04-15T04:25:10.243Z,0.40
2023-04-15T04:27:37.590Z,0.28
2023-04-15T04:30:05.391Z,0.20
2023-04-15T04:32:32.749Z,0.40
2023-04-15T04:35:00.054Z,0.08
2023-04-15T04:37:27.335Z,0.10
2023-04-15T04:39:54.565Z,0.22
2023-04-15T04:42:21.835Z,0.68
2023-04-15T04:44:49.095Z,0.17
2023-04-15T04:47:16.590Z,0.10
2023-04-15T04:49:43.839Z,0.03
2023-04-15T04:52:11.702Z,0.35
2023-04-15T04:54:39.045Z,0.38
2023-04-15T04:57:07.873Z,0.20
2023-04-15T04:59:35.094Z,0.03
2023-04-15T05:02:03.347Z,0.17
2023-04-15T05:04:31.989Z,0.20
2023-04-15T05:06:59.794Z,0.00
2023-04-15T05:09:27.108Z,0.17
2023-04-15T05:11:55.027Z,0.10
2023-04-15T05:14:23.396Z,0.63
2023-04-15T05:16:50.919Z,0.00
2023-04-15T05:19:18.157Z,0.30
2023-04-15T05:21:45.383Z,0.00
2023-04-15T05:24:12.728Z,0.25
2023-04-15T05:26:39.984Z,0.25
2023-04-15T05:29:07.316Z,0.55
2023-04-15T05:31:34.704Z,0.40
2023-04-15T05:34:02.170Z,0.38
2023-04-15T05:36:29.441Z,0.10
2023-04-15T05:38:56.803Z,0.38
2023-04-15T05:41:24.064Z,0.30
2023-04-15T05:43:51.361Z,0.10
2023-04-15T05:46:18.650Z,0.30
2023-04-15T05:48:46.059Z,0.10
2023-04-15T05:51:13.365Z,0.32
2023-04-15T05:53:41.741Z,0.45
2023-04-15T05:56:08.986Z,0.40
2023-04-15T05:58:36.397Z,0.20
2023-04-15T06:01:04.152Z,0.40
2023-04-15T06:03:31.571Z,0.60
2023-04-15T06:05:59.000Z,0.10
2023-04-15T06:08:26.250Z,0.50
2023-04-15T06:10:53.485Z,0.20
2023-04-15T06:13:20.806Z,0.20
2023-04-15T06:15:48.225Z,0.03
2023-04-15T06:18:15.528Z,0.30
2023-04-15T06:20:42.910Z,0.20
2023-04-15T06:23:10.196Z,0.30
2023-04-15T06:25:37.585Z,0.43
2023-04-15T06:28:05.033Z,0.00
2023-04-15T06:30:32.291Z,0.10
2023-04-15T06:32:59.971Z,0.10
2023-04-15T06:35:27.606Z,0.03
2023-04-15T06:37:54.938Z,0.30
2023-04-15T06:40:22.197Z,0.20
2023-04-15T06:42:49.477Z,0.17
2023-04-15T06:45:17.763Z,0.10
2023-04-15T06:47:45.138Z,0.28
2023-04-15T06:50:12.488Z,0.20
2023-04-15T06:52:39.901Z,0.20
2023-04-15T06:55:07.994Z,0.35
2023-04-15T06:57:35.347Z,0.05
2023-04-15T07:00:05.726Z,0.22
2023-04-15T07:02:33.060Z,0.35
2023-04-15T07:05:00.463Z,0.20
2023-04-15T07:07:27.772Z,0.43
2023-04-15T07:09:55.017Z,0.52
2023-04-15T07:12:22.387Z,0.08
2023-04-15T07:14:49.726Z,0.20
2023-04-15T07:17:17.094Z,0.00
2023-04-15T07:19:44.378Z,0.00
2023-04-15T07:22:11.898Z,0.10
2023-04-15T07:24:39.197Z,0.30
2023-04-15T07:27:06.530Z,0.10
2023-04-15T07:29:33.793Z,0.30
2023-04-15T07:32:01.086Z,0.10
2023-04-15T07:34:29.660Z,0.20
2023-04-15T07:36:59.065Z,0.30
2023-04-15T07:39:26.482Z,0.10
2023-04-15T07:41:53.805Z,0.20
2023-04-15T07:44:21.053Z,0.10
2023-04-15T07:46:48.615Z,0.28
2023-04-15T07:49:15.930Z,0.00
2023-04-15T07:51:44.390Z,0.10
2023-04-15T07:54:12.179Z,0.10
2023-04-15T07:56:39.455Z,0.10
2023-04-15T07:59:07.100Z,0.10
2023-04-15T08:01:34.470Z,0.10
2023-04-15T08:04:02.365Z,0.10
2023-04-15T08:06:29.881Z,0.00
2023-04-15T08:08:57.595Z,0.00
2023-04-15T08:11:25.085Z,0.20
2023-04-15T08:13:53.446Z,0.30
2023-04-15T08:16:22.685Z,0.17
2023-04-15T08:18:50.617Z,0.40
2023-04-15T08:21:18.806Z,0.30
2023-04-15T08:23:47.129Z,0.00
2023-04-15T08:26:14.484Z,0.28
2023-04-15T08:28:42.572Z,0.20
2023-04-15T08:31:09.966Z,0.20
2023-04-15T08:33:37.331Z,0.30
2023-04-15T08:36:04.871Z,0.40
2023-04-15T08:38:32.126Z,0.15
2023-04-15T08:41:00.033Z,0.57
2023-04-15T08:43:34.504Z,0.38
2023-04-15T08:46:02.427Z,0.40
2023-04-15T08:48:30.488Z,0.20
2023-04-15T08:50:57.845Z,0.15
2023-04-15T08:53:25.793Z,0.20
2023-04-15T08:55:53.812Z,0.20
2023-04-15T08:58:21.308Z,0.10
2023-04-15T09:00:48.867Z,0.25
2023-04-15T09:03:17.796Z,0.20
2023-04-15T09:05:45.605Z,0.20
2023-04-15T09:08:13.984Z,0.00
2023-04-15T09:10:41.301Z,0.30
2023-04-15T09:13:08.658Z,0.10
2023-04-15T09:15:39.004Z,0.10
2023-04-15T09:18:06.966Z,0.10
2023-04-15T09:20:44.039Z,0.20
2023-04-15T09:23:14.959Z,0.10
2023-04-15T09:25:42.835Z,0.20
2023-04-15T09:28:10.935Z,0.25
2023-04-15T09:30:38.455Z,0.20
2023-04-15T09:33:11.060Z,0.10
2023-04-15T09:38:07.412Z,0.10
2023-04-15T09:40:43.796Z,0.10
2023-04-15T09:43:14.190Z,0.20
2023-04-15T09:45:47.811Z,0.28
2023-04-15T09:48:21.557Z,0.10
2023-04-15T09:50:49.635Z,0.20
2023-04-15T09:53:20.872Z,0.20
2023-04-15T09:55:55.526Z,0.10
2023-04-15T09:58:23.755Z,0.55
2023-04-15T10:00:52.464Z,0.30
2023-04-15T10:03:24.394Z,0.25
2023-04-15T10:05:52.811Z,0.20
2023-04-15T10:08:21.761Z,0.20
2023-04-15T10:10:49.574Z,0.17
2023-04-15T10:13:20.802Z,0.40
2023-04-15T10:15:51.738Z,0.30
2023-04-15T10:18:21.766Z,0.30
2023-04-15T10:20:49.850Z,0.60
2023-04-15T10:23:17.780Z,0.40
2023-04-15T10:25:45.946Z,0.22
2023-04-15T10:28:13.285Z,0.60
2023-04-15T10:30:40.846Z,0.38
2023-04-15T10:33:09.582Z,0.22
2023-04-15T10:35:37.098Z,0.47
2023-04-15T10:38:24.336Z,0.60
2023-04-15T10:40:51.714Z,0.32
2023-04-15T10:43:27.872Z,0.75
2023-04-15T10:45:55.196Z,0.40
2023-04-15T10:48:22.450Z,0.47
2023-04-15T10:50:59.013Z,0.40
2023-04-15T10:53:29.570Z,0.60
2023-04-15T10:55:58.109Z,1.38
2023-04-15T10:58:41.783Z,0.32
2023-04-15T11:01:09.112Z,0.50
2023-04-15T11:03:40.617Z,0.22
2023-04-15T11:06:08.215Z,0.35
2023-04-15T11:08:54.675Z,0.38
2023-04-15T11:11:22.081Z,0.38
2023-04-15T11:13:50.269Z,0.30
2023-04-15T11:16:17.767Z,0.38
2023-04-15T11:18:54.766Z,0.40
2023-04-15T11:21:25.627Z,0.40
2023-04-15T11:23:52.911Z,0.50
2023-04-15T11:26:20.199Z,0.28
2023-04-15T11:28:47.714Z,0.30
2023-04-15T11:31:16.410Z,0.47
2023-04-15T11:34:02.885Z,0.30
2023-04-15T11:36:32.289Z,0.30
2023-04-15T11:39:00.276Z,0.50
2023-04-15T11:41:27.529Z,0.20
2023-04-15T11:43:54.839Z,0.40
2023-04-15T11:46:23.049Z,0.52
2023-04-15T11:48:50.694Z,0.20
2023-04-15T11:51:18.630Z,0.45
2023-04-15T11:53:46.674Z,0.30
2023-04-15T11:56:24.113Z,0.22
2023-04-15T11:59:01.257Z,0.40
2023-04-15T12:01:31.951Z,0.57
2023-04-15T12:04:01.805Z,0.30
2023-04-15T12:06:36.947Z,1.50
2023-04-15T12:09:07.353Z,0.30
2023-04-15T12:11:47.661Z,0.30
2023-04-15T12:14:22.780Z,0.50
2023-04-15T12:16:52.014Z,0.40
2023-04-15T12:19:24.529Z,0.55
2023-04-15T12:21:51.998Z,0.22
2023-04-15T12:24:21.948Z,0.20
2023-04-15T12:26:49.237Z,0.30
2023-04-15T12:29:17.724Z,0.55
2023-04-15T12:31:49.804Z,0.35
2023-04-15T12:34:17.130Z,0.20
2023-04-15T12:36:44.477Z,0.30
2023-04-15T12:39:11.780Z,0.50
2023-04-15T12:41:39.041Z,0.20
2023-04-15T12:44:06.501Z,0.30
2023-04-15T12:46:34.030Z,0.28
2023-04-15T12:49:01.353Z,0.30
2023-04-15T12:51:28.686Z,0.30
2023-04-15T12:53:55.987Z,0.30
2023-04-15T12:56:23.954Z,0.30
2023-04-15T12:58:51.433Z,0.40
2023-04-15T13:01:19.230Z,0.25
2023-04-15T13:03:46.677Z,0.38
2023-04-15T13:06:14.084Z,0.20
2023-04-15T13:08:47.938Z,0.40
2023-04-15T13:11:23.290Z,0.25
2023-04-15T13:13:52.241Z,0.85
2023-04-15T13:16:19.951Z,0.50
2023-04-15T13:18:47.260Z,0.28
2023-04-15T13:21:14.695Z,0.30
2023-04-15T13:23:42.585Z,0.20
2023-04-15T13:26:09.953Z,0.50
2023-04-15T13:28:37.445Z,0.22
2023-04-15T13:31:04.830Z,0.43
2023-04-15T13:33:32.130Z,0.50
2023-04-15T13:35:59.395Z,0.05
2023-04-15T13:38:26.757Z,0.30
2023-04-15T13:40:54.046Z,0.30
2023-04-15T13:43:21.693Z,0.20
2023-04-15T13:45:49.052Z,0.13
2023-04-15T13:48:19.869Z,0.40
2023-04-15T13:50:47.104Z,0.20
2023-04-15T13:53:14.393Z,0.20
2023-04-15T13:55:42.772Z,0.30
2023-04-15T13:58:10.415Z,0.30
2023-04-15T14:00:37.739Z,0.50
2023-04-15T14:03:05.622Z,0.20
2023-04-15T14:05:33.114Z,0.20
2023-04-15T14:08:00.852Z,0.30
2023-04-15T14:10:28.120Z,0.60
2023-04-15T14:12:55.389Z,0.38
2023-04-15T14:15:22.671Z,0.20
2023-04-15T14:17:50.061Z,0.25
2023-04-15T14:20:17.560Z,0.40
2023-04-15T14:22:44.926Z,0.30
2023-04-15T14:25:17.510Z,0.47
2023-04-15T14:27:50.660Z,0.50
2023-04-15T14:30:18.154Z,0.40
2023-04-15T14:32:45.559Z,0.63
2023-04-15T14:35:12.824Z,0.50
2023-04-15T14:37:40.123Z,0.50
2023-04-15T14:40:07.821Z,0.50
2023-04-15T14:42:35.111Z,0.22
2023-04-15T14:45:02.400Z,0.40
2023-04-15T14:47:29.795Z,0.45
2023-04-15T14:49:57.156Z,0.45
2023-04-15T14:52:24.419Z,0.77
2023-04-15T14:54:51.714Z,0.45
2023-04-15T14:57:19.056Z,0.40
2023-04-15T14:59:46.641Z,0.50
2023-04-15T15:02:17.335Z,0.40
2023-04-15T15:04:53.857Z,0.50
2023-04-15T15:07:21.191Z,0.30
2023-04-15T15:09:49.168Z,0.73
2023-04-15T15:12:16.539Z,0.50
2023-04-15T15:14:43.802Z,0.38
2023-04-15T15:17:11.293Z,0.63
2023-04-15T15:19:38.712Z,0.70
2023-04-15T15:22:06.036Z,0.52
2023-04-15T15:24:33.348Z,0.65
2023-04-15T15:27:02.007Z,0.45
2023-04-15T15:29:29.363Z,0.35
2023-04-15T15:31:56.699Z,0.50
2023-04-15T15:34:24.073Z,0.38
2023-04-15T15:36:51.385Z,0.43
2023-04-15T15:39:18.726Z,0.50
2023-04-15T15:41:46.121Z,0.52
2023-04-15T15:44:13.422Z,0.60
2023-04-15T15:46:40.762Z,0.50
2023-04-15T15:49:08.245Z,0.50
2023-04-15T15:51:35.742Z,0.43
2023-04-15T15:54:03.011Z,0.50
2023-04-15T15:56:30.300Z,0.70
2023-04-15T15:58:57.559Z,0.60
2023-04-15T16:01:24.893Z,0.47
2023-04-15T16:03:52.437Z,0.50
2023-04-15T16:06:19.848Z,0.60
2023-04-15T16:08:47.191Z,0.52
2023-04-15T16:11:14.505Z,0.65
2023-04-15T16:13:41.829Z,1.10
2023-04-15T16:16:09.263Z,1.08
2023-04-15T16:18:36.611Z,0.85
2023-04-15T16:21:03.910Z,0.95
2023-04-15T16:23:31.758Z,1.00
2023-04-15T16:25:59.099Z,0.75
2023-04-15T16:28:27.432Z,0.80
2023-04-15T16:30:55.557Z,0.73
2023-04-15T16:33:22.915Z,0.77
2023-04-15T16:35:50.304Z,0.60
2023-04-15T16:38:17.586Z,1.23
2023-04-15T16:40:44.849Z,0.73
2023-04-15T16:43:12.185Z,0.82
2023-04-15T16:45:39.616Z,0.55
2023-04-15T16:48:06.986Z,0.80
2023-04-15T16:50:34.235Z,1.00
2023-04-15T16:53:01.594Z,0.80
2023-04-15T16:55:29.083Z,0.88
2023-04-15T16:58:01.883Z,1.05
2023-04-15T17:00:30.451Z,0.80
2023-04-15T17:02:57.983Z,0.77
2023-04-15T17:05:27.516Z,0.50
2023-04-15T17:07:55.091Z,0.65
2023-04-15T17:10:22.522Z,0.68
2023-04-15T17:12:52.123Z,0.65
2023-04-15T17:15:20.099Z,0.60
2023-04-15T17:17:47.427Z,1.40
2023-04-15T17:20:14.985Z,1.92
2023-04-15T17:22:42.303Z,1.63
2023-04-15T17:25:09.688Z,2.10
2023-04-15T17:27:41.188Z,1.48
2023-04-15T17:30:09.059Z,1.73
2023-04-15T17:32:37.153Z,2.45
2023-04-15T17:35:07.194Z,3.33
2023-04-15T17:37:35.254Z,3.50
2023-04-15T17:40:02.811Z,5.75
2023-04-15T17:42:30.314Z,1.33
2023-04-15T17:44:57.659Z,1.00
2023-04-15T17:47:25.978Z,1.15
2023-04-15T17:49:53.239Z,1.33
2023-04-15T17:52:20.617Z,1.95
2023-04-15T17:54:47.972Z,0.88
2023-04-15T17:57:15.596Z,0.80
2023-04-15T17:59:47.820Z,1.00
2023-04-15T18:02:15.567Z,1.70
2023-04-15T18:04:43.096Z,1.20
2023-04-15T18:07:10.562Z,1.58
2023-04-15T18:09:37.896Z,1.33
2023-04-15T18:12:07.554Z,1.33
2023-04-15T18:14:35.260Z,1.48
2023-04-15T18:17:05.894Z,0.63
2023-04-15T18:19:33.292Z,1.00
2023-04-15T18:22:00.908Z,0.80
2023-04-15T18:24:28.624Z,1.10
2023-04-15T18:26:56.571Z,0.82
2023-04-15T18:29:24.072Z,0.90
2023-04-15T18:31:51.430Z,0.90
2023-04-15T18:34:18.867Z,1.30
2023-04-15T18:36:46.560Z,0.80
2023-04-15T18:39:13.966Z,1.10
2023-04-15T18:41:41.236Z,0.73
2023-04-15T18:44:08.689Z,1.33
2023-04-15T18:46:36.068Z,1.05
2023-04-15T18:49:04.352Z,1.30
2023-04-15T18:51:32.682Z,1.83
2023-04-15T18:54:00.055Z,1.52
2023-04-15T18:56:27.389Z,0.73
2023-04-15T18:59:19.416Z,1.00
2023-04-15T19:01:42.097Z,1.65
2023-04-15T19:04:11.723Z,0.70
2023-04-15T19:06:39.135Z,1.13
2023-04-15T19:09:06.745Z,0.82
2023-04-15T19:11:34.303Z,1.08
2023-04-15T19:14:01.748Z,0.95
2023-04-15T19:16:29.092Z,0.90
2023-04-15T19:18:56.421Z,1.02
2023-04-15T19:21:24.271Z,1.33
2023-04-15T19:23:51.682Z,0.95
2023-04-15T19:26:19.032Z,1.15
2023-04-15T19:28:46.317Z,1.20
2023-04-15T19:31:13.669Z,1.33
2023-04-15T19:33:41.188Z,1.05
2023-04-15T19:36:08.572Z,0.98
2023-04-15T19:38:36.166Z,1.27
2023-04-15T19:41:03.509Z,0.90
2023-04-15T19:43:31.656Z,1.23
2023-04-15T19:45:59.218Z,1.13
2023-04-15T19:48:26.621Z,1.00
2023-04-15T19:50:53.851Z,1.20
2023-04-15T19:53:21.188Z,1.27
2023-04-15T19:55:51.177Z,0.95
2023-04-15T19:58:18.509Z,0.90
2023-04-15T20:00:45.788Z,1.38
2023-04-15T20:03:13.481Z,1.25
2023-04-15T20:05:41.037Z,1.20
2023-04-15T20:08:08.356Z,1.20
2023-04-15T20:10:36.852Z,0.75
2023-04-15T20:13:04.132Z,1.35
2023-04-15T20:15:31.658Z,1.42
2023-04-15T20:17:59.085Z,0.93
2023-04-15T20:20:26.400Z,1.23
2023-04-15T20:22:53.763Z,1.10
2023-04-15T20:25:21.287Z,0.60
2023-04-15T20:27:48.664Z,0.75
2023-04-15T20:30:16.626Z,1.00
2023-04-15T20:32:44.161Z,1.02
2023-04-15T20:35:14.050Z,0.52
2023-04-15T20:37:43.974Z,0.52
2023-04-15T20:40:11.857Z,1.75
2023-04-15T20:42:39.262Z,0.90
2023-04-15T20:45:07.320Z,0.65
2023-04-15T20:47:34.700Z,1.13
2023-04-15T20:50:02.059Z,1.00
2023-04-15T20:52:29.379Z,0.85
2023-04-15T20:54:56.702Z,0.90
2023-04-15T20:57:24.775Z,1.45
2023-04-15T20:59:52.149Z,1.13
2023-04-15T21:02:21.073Z,0.93
2023-04-15T21:04:48.457Z,1.23
2023-04-15T21:07:16.397Z,0.73
2023-04-15T21:09:43.879Z,0.77
2023-04-15T21:12:11.770Z,1.02
2023-04-15T21:14:40.342Z,0.40
2023-04-15T21:17:10.872Z,0.75
2023-04-15T21:19:38.988Z,1.10
2023-04-15T21:22:06.298Z,0.50
2023-04-15T21:24:33.648Z,1.30
2023-04-15T21:27:02.034Z,0.70
2023-04-15T21:29:29.559Z,0.80
2023-04-15T21:31:56.944Z,0.73
2023-04-15T21:34:25.411Z,0.52
2023-04-15T21:36:52.700Z,0.95
2023-04-15T21:39:19.949Z,0.65
2023-04-15T21:41:47.301Z,0.82
2023-04-15T21:44:15.093Z,1.75
2023-04-15T21:46:46.120Z,1.15
2023-04-15T21:49:13.760Z,1.00
2023-04-15T21:51:41.071Z,0.80
2023-04-15T21:54:08.606Z,0.93
2023-04-15T21:56:36.981Z,2.08
2023-04-15T21:59:04.393Z,0.90
2023-04-15T22:01:31.883Z,0.65
2023-04-15T22:03:59.372Z,0.73
2023-04-15T22:06:27.219Z,1.27
2023-04-15T22:08:57.338Z,0.40
2023-04-15T22:11:30.341Z,1.33
2023-04-15T22:13:58.257Z,1.38
2023-04-15T22:16:26.779Z,1.80
2023-04-15T22:18:54.490Z,1.25
2023-04-15T22:21:21.802Z,1.48
2023-04-15T22:23:49.583Z,1.02
2023-04-15T22:26:16.812Z,1.08
2023-04-15T22:28:44.179Z,1.55
2023-04-15T22:31:11.566Z,0.90
2023-04-15T22:33:39.112Z,0.68
2023-04-15T22:36:06.537Z,0.50
2023-04-15T22:38:34.095Z,1.05
2023-04-15T22:41:01.632Z,0.60
2023-04-15T22:43:28.901Z,0.50
2023-04-15T22:45:56.740Z,0.73
2023-04-15T22:48:24.197Z,1.23
2023-04-15T22:50:51.550Z,0.88
2023-04-15T22:53:19.303Z,0.52
2023-04-15T22:55:49.641Z,0.60
2023-04-15T22:58:18.398Z,0.50
2023-04-15T23:00:45.880Z,0.77
2023-04-15T23:03:13.569Z,1.23
2023-04-15T23:05:41.385Z,0.70
2023-04-15T23:08:08.828Z,1.00
2023-04-15T23:10:36.376Z,1.42
2023-04-15T23:13:03.709Z,0.98
2023-04-15T23:15:30.975Z,0.65
2023-04-15T23:18:00.328Z,0.63
2023-04-15T23:20:27.654Z,0.98
2023-04-15T23:22:56.997Z,0.70
2023-04-15T23:25:24.874Z,0.60
2023-04-15T23:27:52.153Z,0.85
2023-04-15T23:30:19.406Z,0.85
2023-04-15T23:32:46.854Z,0.22
2023-04-15T23:35:14.168Z,0.55
2023-04-15T23:37:41.416Z,0.47
2023-04-15T23:40:08.972Z,0.45
2023-04-15T23:42:36.221Z,0.40
2023-04-15T23:45:03.520Z,0.70
2023-04-15T23:47:30.945Z,0.80
2023-04-15T23:50:00.855Z,0.50
2023-04-15T23:52:28.170Z,0.25
2023-04-15T23:54:55.631Z,0.60
2023-04-15T23:57:22.960Z,0.30
2023-04-15T23:59:51.702Z,0.50
